sensor_id;sensor_type;location;lat;lon;timestamp;P1;durP1;ratioP1;P2;durP2;ratioP2
57317;SDS011;43157;50.982;18.132;2022-12-07T00:02:31;15.30;;;6.00;;
57317;SDS011;43157;50.982;18.132;2022-12-07T00:06:07;17.50;;;6.80;;
57317;SDS011;43157;50.982;18.132;2022-12-07T00:09:44;15.10;;;6.40;;
57317;SDS011;43157;50.982;18.132;2022-12-07T00:13:24;15.30;;;5.70;;
57317;SDS011;43157;50.982;18.132;2022-12-07T00:17:02;18.20;;;6.90;;
57317;SDS011;43157;50.982;18.132;2022-12-07T00:20:40;19.30;;;6.50;;
57317;SDS011;43157;50.982;18.132;2022-12-07T00:24:19;14.50;;;6.40;;
57317;SDS011;43157;50.982;18.132;2022-12-07T00:27:57;15.40;;;6.40;;
57317;SDS011;43157;50.982;18.132;2022-12-07T00:31:37;18.30;;;6.60;;
57317;SDS011;43157;50.982;18.132;2022-12-07T00:35:15;28.40;;;9.50;;
57317;SDS011;43157;50.982;18.132;2022-12-07T00:38:54;11.80;;;4.50;;
57317;SDS011;43157;50.982;18.132;2022-12-07T00:42:32;13.90;;;4.00;;
57317;SDS011;43157;50.982;18.132;2022-12-07T00:46:10;16.40;;;5.60;;
57317;SDS011;43157;50.982;18.132;2022-12-07T00:49:50;13.40;;;5.00;;
57317;SDS011;43157;50.982;18.132;2022-12-07T00:53:27;13.00;;;5.00;;
57317;SDS011;43157;50.982;18.132;2022-12-07T00:57:07;15.50;;;6.80;;
57317;SDS011;43157;50.982;18.132;2022-12-07T01:00:45;21.90;;;8.70;;
57317;SDS011;43157;50.982;18.132;2022-12-07T01:04:24;19.80;;;8.60;;
57317;SDS011;43157;50.982;18.132;2022-12-07T01:08:02;16.00;;;6.90;;
57317;SDS011;43157;50.982;18.132;2022-12-07T01:11:41;17.80;;;7.70;;
57317;SDS011;43157;50.982;18.132;2022-12-07T01:15:21;19.20;;;7.40;;
57317;SDS011;43157;50.982;18.132;2022-12-07T01:18:59;19.20;;;7.30;;
57317;SDS011;43157;50.982;18.132;2022-12-07T01:22:38;16.80;;;6.60;;
57317;SDS011;43157;50.982;18.132;2022-12-07T01:26:18;19.30;;;9.10;;
57317;SDS011;43157;50.982;18.132;2022-12-07T01:29:55;19.20;;;7.80;;
57317;SDS011;43157;50.982;18.132;2022-12-07T01:33:34;16.30;;;7.10;;
57317;SDS011;43157;50.982;18.132;2022-12-07T01:37:12;16.40;;;7.00;;
57317;SDS011;43157;50.982;18.132;2022-12-07T01:40:54;19.20;;;8.00;;
57317;SDS011;43157;50.982;18.132;2022-12-07T01:44:30;17.70;;;6.60;;
57317;SDS011;43157;50.982;18.132;2022-12-07T01:48:08;21.50;;;8.40;;
57317;SDS011;43157;50.982;18.132;2022-12-07T01:51:47;17.30;;;7.10;;
57317;SDS011;43157;50.982;18.132;2022-12-07T01:55:26;25.80;;;10.30;;
57317;SDS011;43157;50.982;18.132;2022-12-07T01:59:05;24.90;;;9.10;;
57317;SDS011;43157;50.982;18.132;2022-12-07T02:06:31;18.70;;;8.40;;
57317;SDS011;43157;50.982;18.132;2022-12-07T02:10:20;20.70;;;8.10;;
57317;SDS011;43157;50.982;18.132;2022-12-07T02:13:59;17.50;;;8.20;;
57317;SDS011;43157;50.982;18.132;2022-12-07T02:17:45;14.60;;;6.80;;
57317;SDS011;43157;50.982;18.132;2022-12-07T02:21:29;14.40;;;5.90;;
57317;SDS011;43157;50.982;18.132;2022-12-07T02:32:50;15.70;;;6.50;;
57317;SDS011;43157;50.982;18.132;2022-12-07T02:36:39;11.60;;;4.20;;
57317;SDS011;43157;50.982;18.132;2022-12-07T02:40:28;13.30;;;5.30;;
57317;SDS011;43157;50.982;18.132;2022-12-07T02:44:07;15.10;;;5.40;;
57317;SDS011;43157;50.982;18.132;2022-12-07T02:47:45;14.60;;;5.90;;
57317;SDS011;43157;50.982;18.132;2022-12-07T02:51:25;10.10;;;3.00;;
57317;SDS011;43157;50.982;18.132;2022-12-07T02:55:04;13.60;;;4.70;;
57317;SDS011;43157;50.982;18.132;2022-12-07T03:03:16;12.30;;;4.90;;
57317;SDS011;43157;50.982;18.132;2022-12-07T03:07:00;11.70;;;4.70;;
57317;SDS011;43157;50.982;18.132;2022-12-07T03:10:57;13.20;;;5.20;;
57317;SDS011;43157;50.982;18.132;2022-12-07T03:14:35;10.60;;;3.90;;
57317;SDS011;43157;50.982;18.132;2022-12-07T03:18:17;11.30;;;3.70;;
57317;SDS011;43157;50.982;18.132;2022-12-07T03:22:11;11.10;;;4.20;;
57317;SDS011;43157;50.982;18.132;2022-12-07T03:25:50;13.00;;;4.50;;
57317;SDS011;43157;50.982;18.132;2022-12-07T03:29:36;13.50;;;5.00;;
57317;SDS011;43157;50.982;18.132;2022-12-07T03:33:19;12.00;;;5.50;;
57317;SDS011;43157;50.982;18.132;2022-12-07T03:37:18;15.80;;;6.80;;
57317;SDS011;43157;50.982;18.132;2022-12-07T03:44:39;13.80;;;4.80;;
57317;SDS011;43157;50.982;18.132;2022-12-07T03:52:02;9.90;;;4.20;;
57317;SDS011;43157;50.982;18.132;2022-12-07T03:55:44;12.70;;;4.00;;
57317;SDS011;43157;50.982;18.132;2022-12-07T03:59:23;10.60;;;4.30;;
57317;SDS011;43157;50.982;18.132;2022-12-07T04:03:01;10.10;;;4.50;;
57317;SDS011;43157;50.982;18.132;2022-12-07T04:06:40;11.60;;;5.00;;
57317;SDS011;43157;50.982;18.132;2022-12-07T04:10:18;11.90;;;3.80;;
57317;SDS011;43157;50.982;18.132;2022-12-07T04:13:56;8.80;;;3.50;;
57317;SDS011;43157;50.982;18.132;2022-12-07T04:17:50;11.60;;;4.20;;
57317;SDS011;43157;50.982;18.132;2022-12-07T04:21:28;10.20;;;4.30;;
57317;SDS011;43157;50.982;18.132;2022-12-07T04:25:07;10.40;;;3.60;;
57317;SDS011;43157;50.982;18.132;2022-12-07T04:28:45;9.90;;;4.00;;
57317;SDS011;43157;50.982;18.132;2022-12-07T04:32:24;11.20;;;3.90;;
57317;SDS011;43157;50.982;18.132;2022-12-07T04:36:02;9.10;;;3.40;;
57317;SDS011;43157;50.982;18.132;2022-12-07T04:39:41;8.30;;;2.60;;
57317;SDS011;43157;50.982;18.132;2022-12-07T04:43:19;9.70;;;2.80;;
57317;SDS011;43157;50.982;18.132;2022-12-07T04:46:58;9.50;;;3.60;;
57317;SDS011;43157;50.982;18.132;2022-12-07T04:50:36;10.30;;;3.80;;
57317;SDS011;43157;50.982;18.132;2022-12-07T04:54:15;11.60;;;4.30;;
57317;SDS011;43157;50.982;18.132;2022-12-07T04:57:53;10.90;;;3.40;;
57317;SDS011;43157;50.982;18.132;2022-12-07T05:01:32;8.10;;;2.70;;
57317;SDS011;43157;50.982;18.132;2022-12-07T05:05:10;5.80;;;2.10;;
57317;SDS011;43157;50.982;18.132;2022-12-07T05:08:49;10.20;;;3.10;;
57317;SDS011;43157;50.982;18.132;2022-12-07T05:12:27;9.30;;;3.60;;
57317;SDS011;43157;50.982;18.132;2022-12-07T05:16:06;7.30;;;2.50;;
57317;SDS011;43157;50.982;18.132;2022-12-07T05:19:44;4.50;;;1.30;;
57317;SDS011;43157;50.982;18.132;2022-12-07T05:23:23;6.80;;;1.80;;
57317;SDS011;43157;50.982;18.132;2022-12-07T05:27:01;5.80;;;1.50;;
57317;SDS011;43157;50.982;18.132;2022-12-07T05:30:40;6.20;;;1.60;;
57317;SDS011;43157;50.982;18.132;2022-12-07T05:34:18;3.30;;;1.00;;
57317;SDS011;43157;50.982;18.132;2022-12-07T05:37:57;5.80;;;1.80;;
57317;SDS011;43157;50.982;18.132;2022-12-07T05:41:35;7.90;;;2.40;;
57317;SDS011;43157;50.982;18.132;2022-12-07T05:45:29;9.10;;;2.50;;
57317;SDS011;43157;50.982;18.132;2022-12-07T05:49:08;9.00;;;2.80;;
57317;SDS011;43157;50.982;18.132;2022-12-07T05:52:46;13.10;;;4.50;;
57317;SDS011;43157;50.982;18.132;2022-12-07T05:56:25;10.50;;;3.60;;
57317;SDS011;43157;50.982;18.132;2022-12-07T06:00:04;9.30;;;3.00;;
57317;SDS011;43157;50.982;18.132;2022-12-07T06:03:42;6.50;;;2.40;;
57317;SDS011;43157;50.982;18.132;2022-12-07T06:07:20;9.50;;;3.20;;
57317;SDS011;43157;50.982;18.132;2022-12-07T06:10:59;10.60;;;3.30;;
57317;SDS011;43157;50.982;18.132;2022-12-07T06:14:52;9.10;;;3.30;;
57317;SDS011;43157;50.982;18.132;2022-12-07T06:18:31;7.20;;;2.20;;
57317;SDS011;43157;50.982;18.132;2022-12-07T06:22:10;7.50;;;2.90;;
57317;SDS011;43157;50.982;18.132;2022-12-07T06:25:48;8.10;;;2.90;;
57317;SDS011;43157;50.982;18.132;2022-12-07T06:29:26;14.30;;;5.30;;
57317;SDS011;43157;50.982;18.132;2022-12-07T06:33:05;13.60;;;4.70;;
57317;SDS011;43157;50.982;18.132;2022-12-07T06:36:44;11.60;;;3.90;;
57317;SDS011;43157;50.982;18.132;2022-12-07T06:40:22;17.60;;;8.50;;
57317;SDS011;43157;50.982;18.132;2022-12-07T06:44:00;19.50;;;6.50;;
57317;SDS011;43157;50.982;18.132;2022-12-07T06:47:39;24.50;;;7.80;;
57317;SDS011;43157;50.982;18.132;2022-12-07T06:51:18;18.90;;;7.20;;
57317;SDS011;43157;50.982;18.132;2022-12-07T06:54:56;15.90;;;5.50;;
57317;SDS011;43157;50.982;18.132;2022-12-07T06:58:35;15.30;;;6.90;;
57317;SDS011;43157;50.982;18.132;2022-12-07T07:02:13;10.80;;;3.80;;
57317;SDS011;43157;50.982;18.132;2022-12-07T07:05:52;12.70;;;4.70;;
57317;SDS011;43157;50.982;18.132;2022-12-07T07:09:30;11.90;;;5.10;;
57317;SDS011;43157;50.982;18.132;2022-12-07T07:13:09;11.40;;;4.90;;
57317;SDS011;43157;50.982;18.132;2022-12-07T07:16:47;10.70;;;4.10;;
57317;SDS011;43157;50.982;18.132;2022-12-07T07:20:28;9.30;;;3.00;;
57317;SDS011;43157;50.982;18.132;2022-12-07T07:24:05;8.20;;;3.00;;
57317;SDS011;43157;50.982;18.132;2022-12-07T07:27:43;9.20;;;2.70;;
57317;SDS011;43157;50.982;18.132;2022-12-07T07:31:21;8.50;;;3.30;;
57317;SDS011;43157;50.982;18.132;2022-12-07T07:35:02;11.80;;;5.10;;
57317;SDS011;43157;50.982;18.132;2022-12-07T07:38:38;10.50;;;4.50;;
57317;SDS011;43157;50.982;18.132;2022-12-07T07:42:17;16.60;;;7.00;;
57317;SDS011;43157;50.982;18.132;2022-12-07T07:45:55;27.50;;;9.90;;
57317;SDS011;43157;50.982;18.132;2022-12-07T07:49:34;26.90;;;10.30;;
57317;SDS011;43157;50.982;18.132;2022-12-07T07:53:12;14.70;;;5.50;;
57317;SDS011;43157;50.982;18.132;2022-12-07T07:56:51;17.70;;;7.50;;
57317;SDS011;43157;50.982;18.132;2022-12-07T08:00:29;18.40;;;7.60;;
57317;SDS011;43157;50.982;18.132;2022-12-07T08:04:08;20.50;;;8.40;;
57317;SDS011;43157;50.982;18.132;2022-12-07T08:07:46;26.70;;;11.30;;
57317;SDS011;43157;50.982;18.132;2022-12-07T08:11:25;23.10;;;9.60;;
57317;SDS011;43157;50.982;18.132;2022-12-07T08:15:03;23.40;;;10.50;;
57317;SDS011;43157;50.982;18.132;2022-12-07T08:18:42;26.80;;;11.70;;
57317;SDS011;43157;50.982;18.132;2022-12-07T08:22:20;28.10;;;11.20;;
57317;SDS011;43157;50.982;18.132;2022-12-07T08:26:03;25.90;;;10.70;;
57317;SDS011;43157;50.982;18.132;2022-12-07T08:29:40;29.40;;;11.20;;
57317;SDS011;43157;50.982;18.132;2022-12-07T08:33:18;21.60;;;9.50;;
57317;SDS011;43157;50.982;18.132;2022-12-07T08:36:57;25.00;;;9.60;;
57317;SDS011;43157;50.982;18.132;2022-12-07T08:40:35;24.00;;;9.20;;
57317;SDS011;43157;50.982;18.132;2022-12-07T08:44:14;22.20;;;8.50;;
57317;SDS011;43157;50.982;18.132;2022-12-07T08:48:00;23.30;;;9.70;;
57317;SDS011;43157;50.982;18.132;2022-12-07T08:51:37;23.40;;;10.20;;
57317;SDS011;43157;50.982;18.132;2022-12-07T08:55:16;20.60;;;8.10;;
57317;SDS011;43157;50.982;18.132;2022-12-07T08:58:53;16.20;;;5.70;;
57317;SDS011;43157;50.982;18.132;2022-12-07T09:02:32;21.10;;;8.80;;
57317;SDS011;43157;50.982;18.132;2022-12-07T09:06:12;22.40;;;9.40;;
57317;SDS011;43157;50.982;18.132;2022-12-07T09:09:50;23.30;;;9.10;;
57317;SDS011;43157;50.982;18.132;2022-12-07T09:13:49;28.40;;;8.80;;
57317;SDS011;43157;50.982;18.132;2022-12-07T09:17:07;33.70;;;10.10;;
57317;SDS011;43157;50.982;18.132;2022-12-07T09:20:46;22.80;;;8.00;;
57317;SDS011;43157;50.982;18.132;2022-12-07T09:24:24;20.90;;;7.00;;
57317;SDS011;43157;50.982;18.132;2022-12-07T09:28:02;24.00;;;9.30;;
57317;SDS011;43157;50.982;18.132;2022-12-07T09:31:41;25.90;;;10.30;;
57317;SDS011;43157;50.982;18.132;2022-12-07T09:35:20;18.60;;;7.10;;
57317;SDS011;43157;50.982;18.132;2022-12-07T09:39:01;17.70;;;5.50;;
57317;SDS011;43157;50.982;18.132;2022-12-07T09:42:38;24.90;;;9.50;;
57317;SDS011;43157;50.982;18.132;2022-12-07T09:46:16;23.70;;;8.90;;
57317;SDS011;43157;50.982;18.132;2022-12-07T09:50:00;33.50;;;13.30;;
57317;SDS011;43157;50.982;18.132;2022-12-07T09:53:39;28.80;;;11.70;;
57317;SDS011;43157;50.982;18.132;2022-12-07T09:57:18;32.70;;;13.80;;
57317;SDS011;43157;50.982;18.132;2022-12-07T10:01:11;23.00;;;9.00;;
57317;SDS011;43157;50.982;18.132;2022-12-07T10:04:51;18.20;;;7.30;;
57317;SDS011;43157;50.982;18.132;2022-12-07T10:08:30;22.20;;;9.10;;
57317;SDS011;43157;50.982;18.132;2022-12-07T10:12:09;20.20;;;8.70;;
57317;SDS011;43157;50.982;18.132;2022-12-07T10:15:56;19.00;;;7.50;;
57317;SDS011;43157;50.982;18.132;2022-12-07T10:19:32;25.50;;;9.20;;
57317;SDS011;43157;50.982;18.132;2022-12-07T10:23:14;23.60;;;9.40;;
57317;SDS011;43157;50.982;18.132;2022-12-07T10:26:51;22.30;;;10.40;;
57317;SDS011;43157;50.982;18.132;2022-12-07T10:30:30;22.00;;;9.50;;
57317;SDS011;43157;50.982;18.132;2022-12-07T10:34:22;20.30;;;8.30;;
57317;SDS011;43157;50.982;18.132;2022-12-07T10:37:59;21.70;;;8.10;;
57317;SDS011;43157;50.982;18.132;2022-12-07T10:41:52;33.90;;;11.30;;
57317;SDS011;43157;50.982;18.132;2022-12-07T10:45:29;27.80;;;10.90;;
57317;SDS011;43157;50.982;18.132;2022-12-07T10:57:18;23.80;;;9.30;;
57317;SDS011;43157;50.982;18.132;2022-12-07T11:01:03;25.50;;;9.60;;
57317;SDS011;43157;50.982;18.132;2022-12-07T11:05:16;21.30;;;9.20;;
57317;SDS011;43157;50.982;18.132;2022-12-07T11:24:19;19.20;;;7.50;;
57317;SDS011;43157;50.982;18.132;2022-12-07T11:28:03;19.40;;;7.90;;
57317;SDS011;43157;50.982;18.132;2022-12-07T11:35:57;16.40;;;7.10;;
57317;SDS011;43157;50.982;18.132;2022-12-07T11:39:54;18.10;;;8.00;;
57317;SDS011;43157;50.982;18.132;2022-12-07T11:43:34;20.80;;;8.30;;
57317;SDS011;43157;50.982;18.132;2022-12-07T11:51:11;25.10;;;10.20;;
57317;SDS011;43157;50.982;18.132;2022-12-07T11:54:51;29.40;;;11.50;;
57317;SDS011;43157;50.982;18.132;2022-12-07T11:58:38;21.10;;;8.70;;
57317;SDS011;43157;50.982;18.132;2022-12-07T12:02:27;28.20;;;10.30;;
57317;SDS011;43157;50.982;18.132;2022-12-07T12:06:06;21.60;;;8.90;;
57317;SDS011;43157;50.982;18.132;2022-12-07T12:09:48;23.40;;;8.50;;
57317;SDS011;43157;50.982;18.132;2022-12-07T12:21:16;34.70;;;16.00;;
57317;SDS011;43157;50.982;18.132;2022-12-07T12:24:55;18.20;;;7.80;;
57317;SDS011;43157;50.982;18.132;2022-12-07T12:32:34;19.70;;;6.50;;
57317;SDS011;43157;50.982;18.132;2022-12-07T12:43:51;84.30;;;22.70;;
57317;SDS011;43157;50.982;18.132;2022-12-07T12:47:59;22.90;;;7.90;;
57317;SDS011;43157;50.982;18.132;2022-12-07T12:51:35;16.50;;;6.20;;
57317;SDS011;43157;50.982;18.132;2022-12-07T12:55:13;13.80;;;4.80;;
57317;SDS011;43157;50.982;18.132;2022-12-07T12:59:17;13.80;;;5.20;;
57317;SDS011;43157;50.982;18.132;2022-12-07T13:02:54;13.50;;;5.10;;
57317;SDS011;43157;50.982;18.132;2022-12-07T13:06:34;15.40;;;5.30;;
57317;SDS011;43157;50.982;18.132;2022-12-07T13:21:57;12.30;;;3.40;;
57317;SDS011;43157;50.982;18.132;2022-12-07T13:25:54;10.60;;;3.30;;
57317;SDS011;43157;50.982;18.132;2022-12-07T13:29:36;11.90;;;3.70;;
57317;SDS011;43157;50.982;18.132;2022-12-07T13:33:12;8.40;;;3.10;;
57317;SDS011;43157;50.982;18.132;2022-12-07T13:36:51;9.80;;;3.40;;
57317;SDS011;43157;50.982;18.132;2022-12-07T13:40:30;10.40;;;3.70;;
57317;SDS011;43157;50.982;18.132;2022-12-07T13:44:10;12.90;;;5.10;;
57317;SDS011;43157;50.982;18.132;2022-12-07T13:47:53;16.10;;;6.40;;
57317;SDS011;43157;50.982;18.132;2022-12-07T13:51:50;19.80;;;8.00;;
57317;SDS011;43157;50.982;18.132;2022-12-07T13:55:15;19.30;;;9.00;;
57317;SDS011;43157;50.982;18.132;2022-12-07T13:58:52;18.20;;;7.60;;
57317;SDS011;43157;50.982;18.132;2022-12-07T14:02:31;21.10;;;8.10;;
57317;SDS011;43157;50.982;18.132;2022-12-07T14:09:53;28.00;;;13.30;;
57317;SDS011;43157;50.982;18.132;2022-12-07T14:13:32;35.10;;;13.20;;
57317;SDS011;43157;50.982;18.132;2022-12-07T14:17:17;18.00;;;8.10;;
57317;SDS011;43157;50.982;18.132;2022-12-07T14:21:02;34.20;;;15.40;;
57317;SDS011;43157;50.982;18.132;2022-12-07T14:24:42;24.10;;;10.10;;
57317;SDS011;43157;50.982;18.132;2022-12-07T14:32:14;18.60;;;6.90;;
57317;SDS011;43157;50.982;18.132;2022-12-07T14:36:03;21.60;;;8.90;;
57317;SDS011;43157;50.982;18.132;2022-12-07T14:39:41;19.80;;;7.90;;
57317;SDS011;43157;50.982;18.132;2022-12-07T14:43:19;14.90;;;6.40;;
57317;SDS011;43157;50.982;18.132;2022-12-07T14:46:58;19.50;;;9.00;;
57317;SDS011;43157;50.982;18.132;2022-12-07T14:50:37;21.70;;;10.30;;
57317;SDS011;43157;50.982;18.132;2022-12-07T14:54:16;29.00;;;13.70;;
57317;SDS011;43157;50.982;18.132;2022-12-07T14:57:54;24.10;;;9.40;;
57317;SDS011;43157;50.982;18.132;2022-12-07T15:01:34;18.70;;;7.30;;
57317;SDS011;43157;50.982;18.132;2022-12-07T15:05:13;13.60;;;6.20;;
57317;SDS011;43157;50.982;18.132;2022-12-07T15:08:51;20.70;;;8.40;;
57317;SDS011;43157;50.982;18.132;2022-12-07T15:12:30;26.90;;;12.40;;
57317;SDS011;43157;50.982;18.132;2022-12-07T15:16:10;23.40;;;10.70;;
57317;SDS011;43157;50.982;18.132;2022-12-07T15:19:46;29.90;;;14.10;;
57317;SDS011;43157;50.982;18.132;2022-12-07T15:23:24;21.10;;;8.10;;
57317;SDS011;43157;50.982;18.132;2022-12-07T15:27:03;22.20;;;6.90;;
57317;SDS011;43157;50.982;18.132;2022-12-07T15:30:42;22.00;;;7.90;;
57317;SDS011;43157;50.982;18.132;2022-12-07T15:34:21;22.80;;;8.80;;
57317;SDS011;43157;50.982;18.132;2022-12-07T15:37:59;25.40;;;8.30;;
57317;SDS011;43157;50.982;18.132;2022-12-07T15:41:37;25.90;;;9.00;;
57317;SDS011;43157;50.982;18.132;2022-12-07T15:45:16;29.00;;;11.90;;
57317;SDS011;43157;50.982;18.132;2022-12-07T15:48:54;30.20;;;12.20;;
57317;SDS011;43157;50.982;18.132;2022-12-07T15:52:33;24.80;;;10.00;;
57317;SDS011;43157;50.982;18.132;2022-12-07T15:56:12;21.00;;;10.60;;
57317;SDS011;43157;50.982;18.132;2022-12-07T15:59:51;29.40;;;12.00;;
57317;SDS011;43157;50.982;18.132;2022-12-07T16:03:29;21.10;;;9.20;;
57317;SDS011;43157;50.982;18.132;2022-12-07T16:07:07;25.50;;;11.30;;
57317;SDS011;43157;50.982;18.132;2022-12-07T16:10:47;36.20;;;17.10;;
57317;SDS011;43157;50.982;18.132;2022-12-07T16:14:25;24.40;;;11.10;;
57317;SDS011;43157;50.982;18.132;2022-12-07T16:18:05;22.50;;;9.60;;
57317;SDS011;43157;50.982;18.132;2022-12-07T16:21:41;21.90;;;9.60;;
57317;SDS011;43157;50.982;18.132;2022-12-07T16:25:20;21.90;;;7.10;;
57317;SDS011;43157;50.982;18.132;2022-12-07T16:29:02;28.40;;;9.60;;
57317;SDS011;43157;50.982;18.132;2022-12-07T16:32:37;18.40;;;6.90;;
57317;SDS011;43157;50.982;18.132;2022-12-07T16:36:16;19.60;;;8.30;;
57317;SDS011;43157;50.982;18.132;2022-12-07T16:39:55;20.90;;;10.60;;
57317;SDS011;43157;50.982;18.132;2022-12-07T16:43:34;21.00;;;9.80;;
57317;SDS011;43157;50.982;18.132;2022-12-07T16:47:14;30.70;;;10.90;;
57317;SDS011;43157;50.982;18.132;2022-12-07T16:50:52;40.50;;;13.30;;
57317;SDS011;43157;50.982;18.132;2022-12-07T16:54:30;38.10;;;12.10;;
57317;SDS011;43157;50.982;18.132;2022-12-07T16:58:09;43.00;;;15.10;;
57317;SDS011;43157;50.982;18.132;2022-12-07T17:01:48;56.20;;;20.20;;
57317;SDS011;43157;50.982;18.132;2022-12-07T17:05:27;54.00;;;19.20;;
57317;SDS011;43157;50.982;18.132;2022-12-07T17:09:06;39.10;;;14.50;;
57317;SDS011;43157;50.982;18.132;2022-12-07T17:12:44;39.00;;;13.70;;
57317;SDS011;43157;50.982;18.132;2022-12-07T17:16:22;39.60;;;16.30;;
57317;SDS011;43157;50.982;18.132;2022-12-07T17:20:00;40.60;;;16.30;;
57317;SDS011;43157;50.982;18.132;2022-12-07T17:23:39;35.80;;;13.90;;
57317;SDS011;43157;50.982;18.132;2022-12-07T17:27:18;59.40;;;25.10;;
57317;SDS011;43157;50.982;18.132;2022-12-07T17:30:56;34.20;;;13.40;;
57317;SDS011;43157;50.982;18.132;2022-12-07T17:34:35;31.40;;;11.80;;
57317;SDS011;43157;50.982;18.132;2022-12-07T17:38:13;40.40;;;17.50;;
57317;SDS011;43157;50.982;18.132;2022-12-07T17:41:52;38.00;;;16.60;;
57317;SDS011;43157;50.982;18.132;2022-12-07T17:45:45;28.50;;;13.90;;
57317;SDS011;43157;50.982;18.132;2022-12-07T17:49:25;39.80;;;15.00;;
57317;SDS011;43157;50.982;18.132;2022-12-07T17:53:03;33.20;;;13.30;;
57317;SDS011;43157;50.982;18.132;2022-12-07T17:56:44;20.40;;;8.30;;
57317;SDS011;43157;50.982;18.132;2022-12-07T18:00:22;23.50;;;9.00;;
57317;SDS011;43157;50.982;18.132;2022-12-07T18:04:02;22.90;;;7.70;;
57317;SDS011;43157;50.982;18.132;2022-12-07T18:07:40;18.90;;;7.00;;
57317;SDS011;43157;50.982;18.132;2022-12-07T18:11:18;16.50;;;6.80;;
57317;SDS011;43157;50.982;18.132;2022-12-07T18:14:57;24.30;;;9.50;;
57317;SDS011;43157;50.982;18.132;2022-12-07T18:18:36;24.10;;;10.40;;
57317;SDS011;43157;50.982;18.132;2022-12-07T18:22:15;23.30;;;10.20;;
57317;SDS011;43157;50.982;18.132;2022-12-07T18:25:53;24.90;;;12.20;;
57317;SDS011;43157;50.982;18.132;2022-12-07T18:29:32;33.00;;;17.80;;
57317;SDS011;43157;50.982;18.132;2022-12-07T18:33:10;37.50;;;17.70;;
57317;SDS011;43157;50.982;18.132;2022-12-07T18:36:49;30.30;;;11.90;;
57317;SDS011;43157;50.982;18.132;2022-12-07T18:40:28;23.90;;;8.90;;
57317;SDS011;43157;50.982;18.132;2022-12-07T18:44:06;21.60;;;7.60;;
57317;SDS011;43157;50.982;18.132;2022-12-07T18:47:44;18.40;;;7.50;;
57317;SDS011;43157;50.982;18.132;2022-12-07T18:51:23;19.00;;;7.70;;
57317;SDS011;43157;50.982;18.132;2022-12-07T18:55:01;18.80;;;7.60;;
57317;SDS011;43157;50.982;18.132;2022-12-07T18:58:41;17.20;;;7.00;;
57317;SDS011;43157;50.982;18.132;2022-12-07T19:02:36;18.90;;;8.20;;
57317;SDS011;43157;50.982;18.132;2022-12-07T19:06:34;18.20;;;7.50;;
57317;SDS011;43157;50.982;18.132;2022-12-07T19:09:54;16.90;;;7.40;;
57317;SDS011;43157;50.982;18.132;2022-12-07T19:13:31;17.30;;;8.30;;
57317;SDS011;43157;50.982;18.132;2022-12-07T19:17:12;21.70;;;9.00;;
57317;SDS011;43157;50.982;18.132;2022-12-07T19:20:48;22.90;;;9.70;;
57317;SDS011;43157;50.982;18.132;2022-12-07T19:24:27;19.30;;;8.60;;
57317;SDS011;43157;50.982;18.132;2022-12-07T19:28:05;19.70;;;9.60;;
57317;SDS011;43157;50.982;18.132;2022-12-07T19:31:43;21.50;;;9.30;;
57317;SDS011;43157;50.982;18.132;2022-12-07T19:35:22;19.90;;;9.30;;
57317;SDS011;43157;50.982;18.132;2022-12-07T19:39:00;20.90;;;9.00;;
57317;SDS011;43157;50.982;18.132;2022-12-07T19:42:39;16.70;;;7.60;;
57317;SDS011;43157;50.982;18.132;2022-12-07T19:46:17;21.50;;;9.00;;
57317;SDS011;43157;50.982;18.132;2022-12-07T19:49:58;15.60;;;7.90;;
57317;SDS011;43157;50.982;18.132;2022-12-07T19:53:34;19.30;;;8.20;;
57317;SDS011;43157;50.982;18.132;2022-12-07T19:57:13;20.00;;;8.20;;
57317;SDS011;43157;50.982;18.132;2022-12-07T20:00:52;18.00;;;8.30;;
57317;SDS011;43157;50.982;18.132;2022-12-07T20:04:32;23.50;;;10.20;;
57317;SDS011;43157;50.982;18.132;2022-12-07T20:08:09;31.00;;;10.90;;
57317;SDS011;43157;50.982;18.132;2022-12-07T20:11:48;24.40;;;8.50;;
57317;SDS011;43157;50.982;18.132;2022-12-07T20:15:45;38.90;;;12.80;;
57317;SDS011;43157;50.982;18.132;2022-12-07T20:19:23;36.80;;;12.40;;
57317;SDS011;43157;50.982;18.132;2022-12-07T20:23:02;21.70;;;9.60;;
57317;SDS011;43157;50.982;18.132;2022-12-07T20:26:43;29.90;;;13.80;;
57317;SDS011;43157;50.982;18.132;2022-12-07T20:30:19;32.00;;;14.60;;
57317;SDS011;43157;50.982;18.132;2022-12-07T20:33:57;22.20;;;10.80;;
57317;SDS011;43157;50.982;18.132;2022-12-07T20:37:36;20.70;;;8.20;;
57317;SDS011;43157;50.982;18.132;2022-12-07T20:41:15;26.00;;;9.80;;
57317;SDS011;43157;50.982;18.132;2022-12-07T20:45:08;51.50;;;16.30;;
57317;SDS011;43157;50.982;18.132;2022-12-07T20:48:48;61.90;;;21.80;;
57317;SDS011;43157;50.982;18.132;2022-12-07T20:52:26;63.80;;;21.40;;
57317;SDS011;43157;50.982;18.132;2022-12-07T20:56:04;64.30;;;19.20;;
57317;SDS011;43157;50.982;18.132;2022-12-07T20:59:43;71.50;;;22.10;;
57317;SDS011;43157;50.982;18.132;2022-12-07T21:03:21;60.60;;;20.90;;
57317;SDS011;43157;50.982;18.132;2022-12-07T21:07:00;48.10;;;17.30;;
57317;SDS011;43157;50.982;18.132;2022-12-07T21:10:39;40.30;;;15.40;;
57317;SDS011;43157;50.982;18.132;2022-12-07T21:14:17;31.20;;;12.60;;
57317;SDS011;43157;50.982;18.132;2022-12-07T21:17:56;31.90;;;12.20;;
57317;SDS011;43157;50.982;18.132;2022-12-07T21:21:34;28.10;;;11.80;;
57317;SDS011;43157;50.982;18.132;2022-12-07T21:25:15;26.90;;;9.90;;
57317;SDS011;43157;50.982;18.132;2022-12-07T21:28:52;28.20;;;11.70;;
57317;SDS011;43157;50.982;18.132;2022-12-07T21:32:49;23.10;;;10.70;;
57317;SDS011;43157;50.982;18.132;2022-12-07T21:36:09;25.40;;;9.30;;
57317;SDS011;43157;50.982;18.132;2022-12-07T21:39:49;21.50;;;10.30;;
57317;SDS011;43157;50.982;18.132;2022-12-07T21:43:27;23.50;;;9.70;;
57317;SDS011;43157;50.982;18.132;2022-12-07T21:47:06;30.60;;;11.70;;
57317;SDS011;43157;50.982;18.132;2022-12-07T21:50:44;32.00;;;14.00;;
57317;SDS011;43157;50.982;18.132;2022-12-07T21:54:23;27.50;;;11.80;;
57317;SDS011;43157;50.982;18.132;2022-12-07T21:58:01;25.40;;;11.30;;
57317;SDS011;43157;50.982;18.132;2022-12-07T22:01:41;23.80;;;11.10;;
57317;SDS011;43157;50.982;18.132;2022-12-07T22:05:19;23.20;;;11.40;;
57317;SDS011;43157;50.982;18.132;2022-12-07T22:08:57;43.30;;;20.00;;
57317;SDS011;43157;50.982;18.132;2022-12-07T22:12:36;54.60;;;23.50;;
57317;SDS011;43157;50.982;18.132;2022-12-07T22:16:17;25.70;;;9.20;;
57317;SDS011;43157;50.982;18.132;2022-12-07T22:19:52;22.10;;;9.60;;
57317;SDS011;43157;50.982;18.132;2022-12-07T22:23:32;29.60;;;14.10;;
57317;SDS011;43157;50.982;18.132;2022-12-07T22:27:10;22.80;;;9.50;;
57317;SDS011;43157;50.982;18.132;2022-12-07T22:30:49;20.30;;;8.10;;
57317;SDS011;43157;50.982;18.132;2022-12-07T22:34:26;17.70;;;6.20;;
57317;SDS011;43157;50.982;18.132;2022-12-07T22:38:05;21.40;;;7.70;;
57317;SDS011;43157;50.982;18.132;2022-12-07T22:41:44;19.00;;;7.00;;
57317;SDS011;43157;50.982;18.132;2022-12-07T22:45:23;21.00;;;8.00;;
57317;SDS011;43157;50.982;18.132;2022-12-07T22:49:02;18.10;;;7.50;;
57317;SDS011;43157;50.982;18.132;2022-12-07T22:52:40;19.10;;;8.20;;
57317;SDS011;43157;50.982;18.132;2022-12-07T22:56:19;20.30;;;7.50;;